No requiere especial atencion con respecto al clima.   -   No hay Alarmas

Nearby METAR Reports

 

KSJC - San Jose, California, USA
Distance from station: NE 14km
Actualización: 23/09/2017 08:53
Despejado
Despejado
 Viento del S
Viento: S 6 km/h
Temperatura: 14°C
Rocío: 8°C
Humedad: 67%
Barómetro: 1012.5 hPa
Clouds: Despejado
Visibility: 16 km
2017/09/23 06:53 KSJC 230653Z 18003KT 10SM CLR 14/08 A2990 RMK AO2 SLP125 LAST T01440078 $
KNUQ - Moffett Nas/Mtn, California, USA
Distance from station: N 14km
Actualización: 23/09/2017 08:56
Despejado
Despejado
 Viento del calm
Viento: Calma
Temperatura: 14°C
Rocío: 7°C
Humedad: 63%
Barómetro: 1012.9 hPa
Clouds: Despejado
Visibility: 16 km
2017/09/23 06:56 KNUQ 230656Z AUTO 00000KT 10SM CLR 14/07 A2991 RMK AO2 SLP131 T01440072
 
KPAO - Palo Alto, California, USA
Distance from station: NNO 23km
Actualización: 23/09/2017 05:47
NOT Current
Despejado
Despejado
 Viento del NO
Viento: NO 15 km/h
Temperatura: 15°C
Rocío: 9°C
Humedad: 68%
Barómetro: 1012.5 hPa
Clouds: Despejado
Visibility: 16 km
2017/09/23 03:47 KPAO 230347Z 31008KT 10SM SKC 15/09 A2990 RMK LAST
KRHV - San Jose/Reid, California, USA
Distance from station: ENE 19km
Actualización: 23/09/2017 06:47
NOT Current
Despejado
Despejado
 Viento del NO
Viento: NO 9 km/h
Temperatura: 16°C
Rocío: 9°C
Humedad: 63%
Barómetro: 1013.2 hPa
Clouds: Despejado
Visibility: 16 km
2017/09/23 04:47 KRHV 230447Z 32005KT 10SM SKC 16/09 A2992 RMK LAST
 
KOAK - Oakland, California, USA
Distance from station: NNO 50km
Actualización: 23/09/2017 08:53
Despejado
Despejado
 Viento del calm
Viento: Calma
Temperatura: 12°C
Rocío: 9°C
Humedad: 82%
Barómetro: 1012.5 hPa
Clouds: Despejado
Visibility: 16 km
2017/09/23 06:53 KOAK 230653Z 00000KT 10SM CLR 12/09 A2990 RMK AO2 SLP126 T01220089
KSQL - San Carlos Airpo, California, USA
Distance from station: NO 34km
Actualización: 23/09/2017 09:15
Despejado
Despejado
 Viento del calm
Viento: Calma
Temperatura: 14°C
Rocío: 7°C
Humedad: 63%
Barómetro: 1012.9 hPa
Clouds: Despejado
Visibility: 16 km
2017/09/23 07:15 KSQL 230715Z AUTO 00000KT 10SM CLR 14/07 A2991 RMK AO2
 
KSFO - San Francisco, California, USA
Distance from station: NO 49km
Actualización: 23/09/2017 08:56
Despejado
Despejado
 Viento del O
Viento: O 11 km/h
Temperatura: 15°C
Rocío: 9°C
Humedad: 68%
Barómetro: 1012.2 hPa
Clouds: Despejado
Visibility: 16 km
2017/09/23 06:56 KSFO 230656Z 27006KT 10SM CLR 15/09 A2989 RMK AO2 SLP123 T01500089
KE16 - San Martin, California, USA
Distance from station: ESE 43km
Actualización: 23/09/2017 09:15
Despejado
Despejado
 Viento del ONO
Viento: ONO 9 km/h
Temperatura: 13°C
Rocío: 8°C
Humedad: 72%
Barómetro: 1013.2 hPa
Clouds: Despejado
Visibility: 16 km
2017/09/23 07:15 KE16 230715Z AUTO 30005KT 10SM CLR 13/08 A2992 RMK AO2
 
KWVI - Watsonville, California, USA
Distance from station: SSE 44km
Actualización: 23/09/2017 08:53
Despejado
Despejado
 Viento del NO
Viento: NO 7 km/h
Temperatura: 11°C
Rocío: 10°C
Humedad: 94%
Barómetro: 1012.9 hPa
Clouds: Despejado
Visibility: 16 km
2017/09/23 06:53 KWVI 230653Z AUTO 32004KT 10SM CLR 11/10 A2991 RMK AO2 SLP127 T01110100
KHAF - Half Moon Bay, California, USA
Distance from station: ONO 50km
Actualización: 23/09/2017 09:15
Despejado
Despejado
 Viento del calm
Viento: Calma
Temperatura: 8°C
Barómetro: 1011.9 hPa
Clouds: Despejado
Visibility: 16 km
2017/09/23 07:15 KHAF 230715Z AUTO 00000KT 10SM CLR 08/ A2988 RMK AO2
 
KHWD - Hayward, California, USA
Distance from station: N 44km
Actualización: 23/09/2017 08:54
Despejado
Despejado
 Viento del calm
Viento: Calma
Temperatura: 13°C
Rocío: 7°C
Humedad: 67%
Barómetro: 1012.5 hPa
Clouds: Despejado
Visibility: 16 km
2017/09/23 06:54 KHWD 230654Z AUTO 00000KT 10SM CLR 13/07 A2990 RMK AO2 SLP134 T01330067
KLVK - Livermore, California, USA
Distance from station: NNE 51km
Actualización: 23/09/2017 08:53
Despejado
Despejado
 Viento del E
Viento: E 6 km/h
Temperatura: 13°C
Rocío: 7°C
Humedad: 67%
Barómetro: 1012.2 hPa
Clouds: Despejado
Visibility: 16 km
2017/09/23 06:53 KLVK 230653Z AUTO 08003KT 10SM CLR 13/07 A2989 RMK AO2 SLP119 T01280072